Jarnasklubb, Sweden

7:46 AM CET on December 29, 2014 (GMT +0100)
Bjenberg Oppibyn | Change Station
CLOSE
Current Station
Personal Weather Station
Location: Bjännberg, VäSTERBOTTENS LäN
Elevation: 100 ft
Nearby Weather Stations

Elev 100 ft 63.70 °N, 19.81 °E | Updated 3 seconds ago

Clear
Clear
-1.1 °F
Feels Like -1 °F
N
0.0
Wind Variable Wind from NW
Gusts 0.0 mph

Today
High -- | Low -- °F
--% Chance of Precip.
Yesterday
High -- | Low -- °F
Precip. -- in
9:24 AM 2:02 PM
First Quarter, 56% visible
Pressure 30.09 in
Visibility 6.2 miles
Clouds
Windchill -1 °F
Dew Point -11 °F
Humidity 62%
Rainfall 0.00 in
Snow Depth Not available.
UV Not available.
Pollen Not available.
Air Quality Not available.
Flu Activity Not available.
METAR ESNO 290620Z AUTO 28001KT 9999 NCD M19/M21 Q1019

More Conditions Fewer Conditions

Pressure 30.09 in
Visibility 6.2 miles
Clouds
Windchill -1 °F
Dew Point -11 °F
Humidity 62%
Rainfall 0.00 in
Snow Depth Not available.
UV Not available.
Pollen Not available.
Air Quality Not available.
Flu Activity Not available.
METAR ESNO 290620Z AUTO 28001KT 9999 NCD M19/M21 Q1019

More Conditions Fewer Conditions

10-Day Weather Forecast

Almanac

Astronomy

Dec. 29, 2014 Rise Set
Actual Time
Civil Twilight
Nautical Twilight
Astronomical Twilight
Moon
Length of Visible Light
Length of Day
Tomorrow will be .
, % of the Moon is Illuminated

Today's Extremes

Country Highs Country Lows

Community

WunderPhotos

Upload Photos

1,781,546 photos uploaded!

WunderBlogs® & News

Nearby

Air Quality

  Air Quality AQ Index Pollutant
Not available.

Snow Depth

Station Depth Elevation

Earthquake Activity

City Distance Mag. Time & Date
Minimum magnitude displayed is 2.5.

Coastal Water Temperatures

Place Temperature

Nearby Weather Stations